Time;durP1;ratioP1;P1;durP2;ratioP2;P2;SDS_P1;SDS_P2;PMS_P1;PMS_P2;Temp;Humidity;BMP_temperature;BMP_pressure;BME280_temperature;BME280_humidity;BME280_pressure;Samples;Min_cycle;Max_cycle;Signal;HPM_P1;HPM_P2
2021/06/05 00:02:27;;;;;;;0.20;0.20;;;;;;;;;;5089750;28;20405;-62
2021/06/05 00:04:55;;;;;;;0.20;0.20;;;;;;;;;;5072405;28;20430;-62
2021/06/05 00:07:21;;;;;;;0.20;0.20;;;;;;;;;;5091552;28;20838;-62
2021/06/05 00:09:47;;;;;;;0.20;0.20;;;;;;;;;;5090948;28;20934;-62
2021/06/05 00:12:16;;;;;;;0.20;0.20;;;;;;;;;;5091601;28;20386;-62
2021/06/05 00:14:42;;;;;;;0.20;0.20;;;;;;;;;;5091589;28;20413;-62
2021/06/05 00:17:08;;;;;;;0.20;0.20;;;;;;;;;;5091557;28;20424;-62
2021/06/05 00:19:34;;;;;;;0.20;0.20;;;;;;;;;;5091240;28;20448;-62
2021/06/05 00:22:00;;;;;;;0.20;0.20;;;;;;;;;;5091387;28;20409;-62
2021/06/05 00:24:26;;;;;;;0.20;0.20;;;;;;;;;;5091427;28;20460;-62
2021/06/05 00:26:53;;;;;;;0.20;0.20;;;;;;;;;;5091409;28;20452;-62
2021/06/05 00:29:19;;;;;;;0.20;0.20;;;;;;;;;;5091236;28;20406;-62
2021/06/05 00:31:45;;;;;;;0.20;0.20;;;;;;;;;;5091438;28;20401;-62
2021/06/05 00:34:12;;;;;;;0.20;0.20;;;;;;;;;;5091423;28;20459;-62
2021/06/05 00:36:38;;;;;;;0.20;0.20;;;;;;;;;;5091277;28;20477;-62
2021/06/05 00:39:05;;;;;;;0.20;0.20;;;;;;;;;;5091292;28;20914;-62
2021/06/05 00:41:31;;;;;;;0.30;0.30;;;;;;;;;;5093285;28;20379;-62
2021/06/05 00:43:59;;;;;;;0.20;0.20;;;;;;;;;;5095253;28;20821;-62
2021/06/05 00:46:26;;;;;;;0.20;0.20;;;;;;;;;;5095221;28;20431;-61
2021/06/05 00:48:52;;;;;;;0.20;0.20;;;;;;;;;;5094893;28;20431;-61
2021/06/05 00:51:19;;;;;;;0.20;0.20;;;;;;;;;;5095084;28;20391;-61
2021/06/05 00:53:45;;;;;;;0.20;0.20;;;;;;;;;;5095116;28;20401;-61
2021/06/05 00:56:12;;;;;;;0.20;0.20;;;;;;;;;;5094976;28;20439;-61
2021/06/05 00:58:38;;;;;;;0.20;0.20;;;;;;;;;;5094433;28;20466;-61
2021/06/05 01:01:12;;;;;;;0.20;0.20;;;;;;;;;;5094891;28;20809;-61
2021/06/05 01:03:39;;;;;;;0.20;0.20;;;;;;;;;;5094866;28;20432;-61
2021/06/05 01:06:26;;;;;;;0.20;0.20;;;;;;;;;;5094674;28;20962;-62
2021/06/05 01:08:55;;;;;;;0.20;0.20;;;;;;;;;;5094511;28;20420;-61
2021/06/05 01:11:33;;;;;;;0.20;0.20;;;;;;;;;;5094679;28;20411;-61
2021/06/05 01:13:59;;;;;;;0.20;0.20;;;;;;;;;;5094653;28;20404;-60
2021/06/05 01:16:26;;;;;;;0.20;0.20;;;;;;;;;;5094581;28;20851;-61
2021/06/05 01:19:01;;;;;;;0.20;0.20;;;;;;;;;;5094251;28;20444;-62
2021/06/05 01:21:35;;;;;;;0.20;0.20;;;;;;;;;;5094678;28;20411;-62
2021/06/05 01:24:08;;;;;;;0.20;0.20;;;;;;;;;;5094572;28;20404;-61
2021/06/05 01:26:35;;;;;;;0.20;0.20;;;;;;;;;;5094488;28;20416;-61
2021/06/05 01:29:10;;;;;;;0.20;0.20;;;;;;;;;;5094496;28;20447;-62
2021/06/05 01:31:38;;;;;;;0.20;0.20;;;;;;;;;;5094473;28;20399;-61
2021/06/05 01:34:05;;;;;;;0.20;0.20;;;;;;;;;;5094412;28;20446;-61
2021/06/05 01:36:32;;;;;;;0.20;0.20;;;;;;;;;;5093786;28;20413;-61
2021/06/05 01:39:01;;;;;;;0.20;0.20;;;;;;;;;;5075775;28;20432;-61
2021/06/05 01:41:29;;;;;;;0.20;0.20;;;;;;;;;;5094084;28;20403;-61
2021/06/05 01:43:55;;;;;;;0.20;0.20;;;;;;;;;;5094193;28;20397;-61
2021/06/05 01:46:23;;;;;;;0.20;0.20;;;;;;;;;;5076008;28;20488;-61
2021/06/05 01:48:49;;;;;;;0.20;0.20;;;;;;;;;;5094283;28;20943;-61
2021/06/05 01:51:17;;;;;;;0.20;0.20;;;;;;;;;;5094016;28;20371;-61
2021/06/05 01:53:52;;;;;;;0.30;0.30;;;;;;;;;;5092867;28;20397;-61
2021/06/05 01:56:27;;;;;;;0.20;0.20;;;;;;;;;;5094130;28;20814;-61
2021/06/05 01:58:53;;;;;;;0.20;0.20;;;;;;;;;;5093594;28;20409;-61
2021/06/05 02:01:19;;;;;;;0.20;0.20;;;;;;;;;;5093828;28;20387;-61
2021/06/05 02:03:45;;;;;;;0.30;0.30;;;;;;;;;;5121215;27;20464;-61
2021/06/05 02:06:11;;;;;;;0.30;0.30;;;;;;;;;;5134304;27;20498;-61
2021/06/05 02:08:38;;;;;;;0.20;0.20;;;;;;;;;;5133904;27;20453;-61
2021/06/05 02:11:12;;;;;;;0.20;0.20;;;;;;;;;;5134292;27;20413;-61
2021/06/05 02:13:42;;;;;;;0.30;0.30;;;;;;;;;;5134230;27;20381;-61
2021/06/05 02:16:29;;;;;;;0.20;0.20;;;;;;;;;;5134181;27;20377;-61
2021/06/05 02:18:57;;;;;;;0.20;0.20;;;;;;;;;;5133680;27;20457;-61
2021/06/05 02:21:24;;;;;;;0.30;0.30;;;;;;;;;;5134578;27;20748;-61
2021/06/05 02:23:55;;;;;;;0.30;0.30;;;;;;;;;;5134049;27;20414;-61
2021/06/05 02:26:22;;;;;;;0.20;0.20;;;;;;;;;;5133881;27;20465;-61
2021/06/05 02:28:50;;;;;;;0.20;0.20;;;;;;;;;;5133588;27;20774;-61
2021/06/05 02:31:16;;;;;;;0.20;0.20;;;;;;;;;;5133776;27;20394;-61
2021/06/05 02:33:43;;;;;;;0.20;0.20;;;;;;;;;;5134103;27;20420;-61
2021/06/05 02:36:12;;;;;;;0.20;0.20;;;;;;;;;;5133888;27;20493;-61
2021/06/05 02:38:39;;;;;;;0.20;0.20;;;;;;;;;;5133437;27;21001;-61
2021/06/05 02:41:07;;;;;;;0.20;0.20;;;;;;;;;;5133665;27;20497;-61
2021/06/05 02:43:33;;;;;;;0.20;0.20;;;;;;;;;;5133615;27;20374;-61
2021/06/05 02:46:12;;;;;;;0.20;0.20;;;;;;;;;;5133512;27;20458;-61
2021/06/05 02:48:49;;;;;;;0.20;0.20;;;;;;;;;;5133191;27;20429;-61
2021/06/05 02:51:15;;;;;;;0.20;0.20;;;;;;;;;;5133505;27;20457;-61
2021/06/05 02:53:41;;;;;;;0.20;0.20;;;;;;;;;;5133396;27;20386;-61
2021/06/05 02:56:08;;;;;;;0.20;0.20;;;;;;;;;;5133373;27;20435;-61
2021/06/05 02:58:34;;;;;;;0.20;0.20;;;;;;;;;;5133299;27;20521;-61
2021/06/05 03:01:00;;;;;;;0.20;0.20;;;;;;;;;;5133257;27;20489;-61
2021/06/05 03:03:26;;;;;;;0.20;0.20;;;;;;;;;;5133137;27;20463;-61
2021/06/05 03:05:53;;;;;;;0.20;0.20;;;;;;;;;;5133152;27;20453;-61
2021/06/05 03:08:24;;;;;;;0.20;0.20;;;;;;;;;;5132962;27;20505;-62
2021/06/05 03:10:51;;;;;;;0.30;0.30;;;;;;;;;;5132929;27;20913;-62
2021/06/05 03:13:18;;;;;;;0.20;0.20;;;;;;;;;;5132977;27;20417;-62
2021/06/05 03:15:45;;;;;;;0.20;0.20;;;;;;;;;;5133108;27;20409;-62
2021/06/05 03:18:11;;;;;;;0.30;0.30;;;;;;;;;;5132820;27;20433;-61
2021/06/05 03:20:39;;;;;;;0.20;0.20;;;;;;;;;;5132859;27;20406;-62
2021/06/05 03:23:06;;;;;;;0.20;0.20;;;;;;;;;;5132846;27;20438;-62
2021/06/05 03:25:32;;;;;;;0.20;0.20;;;;;;;;;;5132760;27;20859;-62
2021/06/05 03:27:58;;;;;;;0.20;0.20;;;;;;;;;;5132598;27;20885;-62
2021/06/05 03:30:25;;;;;;;0.20;0.20;;;;;;;;;;5132681;27;20481;-61
2021/06/05 03:32:51;;;;;;;0.20;0.20;;;;;;;;;;5132602;27;20403;-60
2021/06/05 03:35:17;;;;;;;0.20;0.20;;;;;;;;;;5132663;27;20398;-58
2021/06/05 03:37:43;;;;;;;0.20;0.20;;;;;;;;;;5132561;27;20884;-60
2021/06/05 03:40:11;;;;;;;0.20;0.20;;;;;;;;;;5132229;27;20418;-59
2021/06/05 03:42:37;;;;;;;0.30;0.30;;;;;;;;;;5133088;27;20385;-62
2021/06/05 03:45:08;;;;;;;0.20;0.20;;;;;;;;;;5132536;27;20821;-61
2021/06/05 03:47:34;;;;;;;0.20;0.20;;;;;;;;;;5132492;27;20403;-61
2021/06/05 03:50:00;;;;;;;0.20;0.20;;;;;;;;;;5132158;27;20456;-62
2021/06/05 03:52:26;;;;;;;0.20;0.20;;;;;;;;;;5132348;27;20395;-61
2021/06/05 03:54:53;;;;;;;0.30;0.30;;;;;;;;;;5132428;27;20919;-61
2021/06/05 03:57:20;;;;;;;0.20;0.20;;;;;;;;;;5132423;27;20420;-62
2021/06/05 03:59:46;;;;;;;0.20;0.20;;;;;;;;;;5132131;27;20553;-61
2021/06/05 04:02:12;;;;;;;0.20;0.20;;;;;;;;;;5132369;27;20413;-62
2021/06/05 04:04:38;;;;;;;0.20;0.20;;;;;;;;;;5132146;27;20431;-62
2021/06/05 04:07:09;;;;;;;0.20;0.20;;;;;;;;;;5132196;28;20376;-61
2021/06/05 04:09:35;;;;;;;0.20;0.20;;;;;;;;;;5132374;28;20425;-62
2021/06/05 04:12:02;;;;;;;0.20;0.20;;;;;;;;;;5132327;28;20483;-62
2021/06/05 04:14:27;;;;;;;0.20;0.20;;;;;;;;;;5132268;28;20406;-62
2021/06/05 04:16:53;;;;;;;0.20;0.20;;;;;;;;;;5135135;27;20889;-62
2021/06/05 04:19:19;;;;;;;0.20;0.20;;;;;;;;;;5136108;27;20420;-62
2021/06/05 04:21:45;;;;;;;0.20;0.20;;;;;;;;;;5136306;27;20912;-62
2021/06/05 04:24:11;;;;;;;0.30;0.30;;;;;;;;;;5136460;27;20491;-62
2021/06/05 04:26:37;;;;;;;0.20;0.20;;;;;;;;;;5136295;27;20506;-62
2021/06/05 04:29:04;;;;;;;0.20;0.20;;;;;;;;;;5136113;27;20454;-62
2021/06/05 04:31:30;;;;;;;0.20;0.20;;;;;;;;;;5136692;27;20443;-62
2021/06/05 04:33:56;;;;;;;0.30;0.30;;;;;;;;;;5136537;27;20420;-62
2021/06/05 04:36:23;;;;;;;0.20;0.20;;;;;;;;;;5136345;27;20409;-61
2021/06/05 04:38:49;;;;;;;0.20;0.20;;;;;;;;;;5116480;27;20488;-62
2021/06/05 04:41:16;;;;;;;0.20;0.20;;;;;;;;;;5097991;28;20630;-62
2021/06/05 04:43:42;;;;;;;0.20;0.20;;;;;;;;;;5095398;28;20544;-62
2021/06/05 04:46:08;;;;;;;0.20;0.20;;;;;;;;;;5111076;28;20462;-61
2021/06/05 04:48:35;;;;;;;0.20;0.20;;;;;;;;;;5114784;28;20788;-62
2021/06/05 04:51:01;;;;;;;0.20;0.20;;;;;;;;;;5113940;28;20420;-62
2021/06/05 04:53:27;;;;;;;0.20;0.20;;;;;;;;;;5114826;28;20410;-62
2021/06/05 04:55:53;;;;;;;0.20;0.20;;;;;;;;;;5113953;28;20468;-61
2021/06/05 04:58:20;;;;;;;0.20;0.20;;;;;;;;;;5113580;28;20402;-62
2021/06/05 05:00:47;;;;;;;0.20;0.20;;;;;;;;;;5097270;28;20461;-62
2021/06/05 05:03:14;;;;;;;0.20;0.20;;;;;;;;;;5095861;28;20919;-61
2021/06/05 05:05:41;;;;;;;0.20;0.20;;;;;;;;;;5115257;28;20561;-61
2021/06/05 05:08:08;;;;;;;0.20;0.20;;;;;;;;;;5115089;28;20520;-61
2021/06/05 05:10:35;;;;;;;0.20;0.20;;;;;;;;;;5094676;28;20382;-62
2021/06/05 05:13:02;;;;;;;0.20;0.20;;;;;;;;;;5094880;28;20404;-61
2021/06/05 05:15:28;;;;;;;0.20;0.20;;;;;;;;;;5114306;28;20447;-61
2021/06/05 05:17:54;;;;;;;0.30;0.30;;;;;;;;;;5113178;28;20478;-62
2021/06/05 05:20:22;;;;;;;0.30;0.30;;;;;;;;;;5115995;28;20435;-62
2021/06/05 05:22:48;;;;;;;0.20;0.20;;;;;;;;;;5113358;28;20378;-62
2021/06/05 05:25:15;;;;;;;0.30;0.30;;;;;;;;;;5103265;28;20459;-61
2021/06/05 05:27:41;;;;;;;0.20;0.20;;;;;;;;;;5114892;28;20377;-62
2021/06/05 05:30:08;;;;;;;0.20;0.20;;;;;;;;;;5114534;28;20941;-54
2021/06/05 05:32:34;;;;;;;0.30;0.30;;;;;;;;;;5114710;28;20407;-57
2021/06/05 05:35:01;;;;;;;0.20;0.20;;;;;;;;;;5114816;28;20378;-59
2021/06/05 05:37:27;;;;;;;0.20;0.20;;;;;;;;;;5114810;28;20820;-61
2021/06/05 05:39:53;;;;;;;0.20;0.20;;;;;;;;;;5114429;28;20847;-56
2021/06/05 05:42:19;;;;;;;0.30;0.30;;;;;;;;;;5113779;28;20426;-62
2021/06/05 05:44:45;;;;;;;0.20;0.20;;;;;;;;;;5110984;28;20460;-62
2021/06/05 05:47:11;;;;;;;0.20;0.20;;;;;;;;;;5111122;28;20975;-61
2021/06/05 05:49:37;;;;;;;0.20;0.20;;;;;;;;;;5102043;28;20444;-62
2021/06/05 05:52:04;;;;;;;0.20;0.20;;;;;;;;;;5098528;28;20940;-62
2021/06/05 05:54:30;;;;;;;0.20;0.20;;;;;;;;;;5100031;28;20980;-62
2021/06/05 05:56:56;;;;;;;0.20;0.20;;;;;;;;;;5108830;28;20465;-62
2021/06/05 05:59:22;;;;;;;0.20;0.20;;;;;;;;;;5104457;28;20418;-62
2021/06/05 06:01:48;;;;;;;0.20;0.20;;;;;;;;;;5094700;28;20402;-61
2021/06/05 06:04:14;;;;;;;0.20;0.20;;;;;;;;;;5103821;28;20389;-61
2021/06/05 06:06:40;;;;;;;0.20;0.20;;;;;;;;;;5118058;28;20865;-61
2021/06/05 06:09:07;;;;;;;0.20;0.20;;;;;;;;;;5102940;28;20422;-61
2021/06/05 06:11:33;;;;;;;0.20;0.20;;;;;;;;;;5093824;28;21076;-61
2021/06/05 06:13:59;;;;;;;0.20;0.20;;;;;;;;;;5103767;28;20432;-61
2021/06/05 06:16:25;;;;;;;0.20;0.20;;;;;;;;;;5113514;28;20779;-61
2021/06/05 06:18:51;;;;;;;0.20;0.20;;;;;;;;;;5111763;28;20537;-62
2021/06/05 06:21:19;;;;;;;0.20;0.20;;;;;;;;;;5099056;28;20452;-61
2021/06/05 06:23:46;;;;;;;0.20;0.20;;;;;;;;;;5108712;28;20438;-62
2021/06/05 06:26:14;;;;;;;0.20;0.20;;;;;;;;;;5113735;28;20461;-61
2021/06/05 06:28:41;;;;;;;0.20;0.20;;;;;;;;;;5102092;28;20450;-61
2021/06/05 06:31:08;;;;;;;0.20;0.20;;;;;;;;;;5111945;28;20382;-62
2021/06/05 06:33:34;;;;;;;0.20;0.20;;;;;;;;;;5112787;28;20517;-62
2021/06/05 06:36:00;;;;;;;0.20;0.20;;;;;;;;;;5107505;28;20424;-62
2021/06/05 06:38:35;;;;;;;0.20;0.20;;;;;;;;;;5092205;28;20766;-61
2021/06/05 06:41:03;;;;;;;0.20;0.20;;;;;;;;;;5108769;28;20423;-62
2021/06/05 06:43:30;;;;;;;0.20;0.20;;;;;;;;;;5113338;28;20378;-62
2021/06/05 06:45:56;;;;;;;0.20;0.20;;;;;;;;;;5105972;28;20502;-62
2021/06/05 06:48:22;;;;;;;0.20;0.20;;;;;;;;;;5100515;28;20431;-62
2021/06/05 06:50:48;;;;;;;0.20;0.20;;;;;;;;;;5111767;27;20390;-62
2021/06/05 06:53:15;;;;;;;0.20;0.20;;;;;;;;;;5111766;28;20399;-62
2021/06/05 06:55:41;;;;;;;0.20;0.20;;;;;;;;;;5108824;28;20395;-62
2021/06/05 06:58:07;;;;;;;0.20;0.20;;;;;;;;;;5100985;28;20473;-62
2021/06/05 07:00:35;;;;;;;0.20;0.20;;;;;;;;;;5112594;28;20404;-62
2021/06/05 07:03:01;;;;;;;0.20;0.20;;;;;;;;;;5100405;28;20773;-62
2021/06/05 07:05:27;;;;;;;0.20;0.20;;;;;;;;;;5109458;28;20437;-62
2021/06/05 07:08:05;;;;;;;0.20;0.20;;;;;;;;;;5097714;28;20394;-62
2021/06/05 07:10:32;;;;;;;0.20;0.20;;;;;;;;;;5112607;28;20502;-62
2021/06/05 07:12:58;;;;;;;0.20;0.20;;;;;;;;;;5098513;28;20487;-63
2021/06/05 07:15:24;;;;;;;0.20;0.20;;;;;;;;;;5122805;27;20420;-62
2021/06/05 07:17:50;;;;;;;0.20;0.20;;;;;;;;;;5112073;28;20587;-62
2021/06/05 07:20:16;;;;;;;0.20;0.20;;;;;;;;;;5111328;28;20531;-62
2021/06/05 07:22:42;;;;;;;0.20;0.20;;;;;;;;;;5102710;28;20915;-62
2021/06/05 07:25:08;;;;;;;0.20;0.20;;;;;;;;;;5090656;28;20473;-62
2021/06/05 07:27:34;;;;;;;0.20;0.20;;;;;;;;;;5108684;28;20490;-62
2021/06/05 07:30:00;;;;;;;0.20;0.20;;;;;;;;;;5091635;28;20440;-62
2021/06/05 07:32:26;;;;;;;0.20;0.20;;;;;;;;;;5092802;28;20407;-62
2021/06/05 07:34:52;;;;;;;0.20;0.20;;;;;;;;;;5103067;28;20432;-62
2021/06/05 07:37:20;;;;;;;0.20;0.20;;;;;;;;;;5103006;28;20426;-62
2021/06/05 07:39:46;;;;;;;0.20;0.20;;;;;;;;;;5100699;28;20451;-63
2021/06/05 07:42:13;;;;;;;0.20;0.20;;;;;;;;;;5099346;28;20414;-62
2021/06/05 07:44:39;;;;;;;0.20;0.20;;;;;;;;;;5111783;28;20463;-62
2021/06/05 07:47:05;;;;;;;0.20;0.20;;;;;;;;;;5111913;28;20408;-62
2021/06/05 07:49:33;;;;;;;0.20;0.20;;;;;;;;;;5098633;28;20472;-62
2021/06/05 07:52:00;;;;;;;0.20;0.20;;;;;;;;;;5090682;28;20424;-62
2021/06/05 07:54:26;;;;;;;0.20;0.20;;;;;;;;;;5090948;28;20447;-62
2021/06/05 07:56:52;;;;;;;0.20;0.20;;;;;;;;;;5089861;28;20401;-62
2021/06/05 07:59:19;;;;;;;0.20;0.20;;;;;;;;;;5091341;28;20420;-62
2021/06/05 08:01:46;;;;;;;0.20;0.20;;;;;;;;;;5091294;28;20499;-62
2021/06/05 08:04:12;;;;;;;0.20;0.20;;;;;;;;;;5091488;28;20404;-62
2021/06/05 08:06:38;;;;;;;0.20;0.20;;;;;;;;;;5091360;28;20434;-62
2021/06/05 08:09:05;;;;;;;0.20;0.20;;;;;;;;;;5091041;28;20844;-62
2021/06/05 08:11:31;;;;;;;0.20;0.20;;;;;;;;;;5092178;28;20428;-62
2021/06/05 08:13:57;;;;;;;0.20;0.20;;;;;;;;;;5103229;28;20403;-61
2021/06/05 08:16:23;;;;;;;0.20;0.20;;;;;;;;;;5094911;28;20845;-61
2021/06/05 08:18:49;;;;;;;0.20;0.20;;;;;;;;;;5072565;28;20964;-62
2021/06/05 08:21:16;;;;;;;0.20;0.20;;;;;;;;;;5090494;28;20837;-61
2021/06/05 08:23:42;;;;;;;0.20;0.20;;;;;;;;;;5091080;28;20836;-62
2021/06/05 08:26:09;;;;;;;0.20;0.20;;;;;;;;;;5091029;28;20943;-62
2021/06/05 08:28:36;;;;;;;0.20;0.20;;;;;;;;;;5090691;28;20410;-62
2021/06/05 08:31:04;;;;;;;0.20;0.20;;;;;;;;;;5091194;28;20882;-62
2021/06/05 08:33:31;;;;;;;0.20;0.20;;;;;;;;;;5090986;28;20796;-61
2021/06/05 08:35:57;;;;;;;0.20;0.20;;;;;;;;;;5091088;28;20402;-62
2021/06/05 08:38:25;;;;;;;0.20;0.20;;;;;;;;;;5091022;28;20909;-62
2021/06/05 08:40:51;;;;;;;0.20;0.20;;;;;;;;;;5090829;28;20750;-62
2021/06/05 08:43:38;;;;;;;0.20;0.20;;;;;;;;;;5091725;28;20766;-62
2021/06/05 08:46:05;;;;;;;0.20;0.20;;;;;;;;;;5102271;28;20486;-62
2021/06/05 08:48:31;;;;;;;0.20;0.20;;;;;;;;;;5104348;28;20412;-61
2021/06/05 08:51:02;;;;;;;0.20;0.20;;;;;;;;;;5107425;28;20416;-62
2021/06/05 08:53:29;;;;;;;0.20;0.20;;;;;;;;;;5111015;28;20414;-62
2021/06/05 08:55:58;;;;;;;0.20;0.20;;;;;;;;;;5076500;28;20870;-62
2021/06/05 08:58:30;;;;;;;0.20;0.20;;;;;;;;;;5109684;28;20477;-62
2021/06/05 09:00:59;;;;;;;0.20;0.20;;;;;;;;;;5105066;28;20409;-62
2021/06/05 09:03:27;;;;;;;0.20;0.20;;;;;;;;;;5103066;28;20410;-62
2021/06/05 09:05:55;;;;;;;0.20;0.20;;;;;;;;;;5114635;28;20468;-62
2021/06/05 09:08:22;;;;;;;0.20;0.20;;;;;;;;;;5114328;28;20473;-62
2021/06/05 09:10:49;;;;;;;0.20;0.20;;;;;;;;;;5114460;28;20408;-62
2021/06/05 09:13:15;;;;;;;0.20;0.20;;;;;;;;;;5114671;28;20399;-62
2021/06/05 09:15:41;;;;;;;0.20;0.20;;;;;;;;;;5114597;28;20414;-62
2021/06/05 09:18:09;;;;;;;0.20;0.20;;;;;;;;;;5114202;28;20406;-62
2021/06/05 09:20:38;;;;;;;0.20;0.20;;;;;;;;;;5113151;28;20410;-62
2021/06/05 09:23:22;;;;;;;0.20;0.20;;;;;;;;;;5114755;28;20442;-62
2021/06/05 09:25:48;;;;;;;0.20;0.20;;;;;;;;;;5112844;28;20459;-62
2021/06/05 09:28:14;;;;;;;0.20;0.20;;;;;;;;;;5114253;28;20856;-62
2021/06/05 09:30:42;;;;;;;0.20;0.20;;;;;;;;;;5114166;28;20429;-62
2021/06/05 09:33:10;;;;;;;0.20;0.20;;;;;;;;;;5114597;28;20507;-62
2021/06/05 09:35:40;;;;;;;0.20;0.20;;;;;;;;;;5096107;28;20412;-62
2021/06/05 09:38:12;;;;;;;0.20;0.20;;;;;;;;;;5114321;28;20889;-62
2021/06/05 09:40:38;;;;;;;0.20;0.20;;;;;;;;;;5114117;28;20416;-62
2021/06/05 09:43:10;;;;;;;0.20;0.20;;;;;;;;;;5114736;28;20439;-62
2021/06/05 09:45:41;;;;;;;0.20;0.20;;;;;;;;;;5113871;28;21016;-62
2021/06/05 09:48:35;;;;;;;0.20;0.20;;;;;;;;;;5114119;28;20439;-62
2021/06/05 09:51:04;;;;;;;0.20;0.20;;;;;;;;;;5111353;28;20420;-62
2021/06/05 09:53:33;;;;;;;0.20;0.20;;;;;;;;;;5114099;28;20883;-62
2021/06/05 09:56:00;;;;;;;0.20;0.20;;;;;;;;;;5114126;28;20497;-62
2021/06/05 09:58:52;;;;;;;0.20;0.20;;;;;;;;;;5113537;28;20401;-62
2021/06/05 10:01:21;;;;;;;0.20;0.20;;;;;;;;;;5075634;28;20419;-62
2021/06/05 10:03:48;;;;;;;0.20;0.20;;;;;;;;;;5113927;28;20382;-62
2021/06/05 10:06:33;;;;;;;0.20;0.20;;;;;;;;;;5113808;28;20963;-62
2021/06/05 10:09:01;;;;;;;0.20;0.20;;;;;;;;;;5113989;28;20476;-62
2021/06/05 10:11:30;;;;;;;0.20;0.20;;;;;;;;;;5114417;28;20370;-62
2021/06/05 10:14:11;;;;;;;0.20;0.20;;;;;;;;;;5113352;28;20427;-62
2021/06/05 10:16:39;;;;;;;0.20;0.20;;;;;;;;;;5113822;28;20792;-62
2021/06/05 10:19:08;;;;;;;0.20;0.20;;;;;;;;;;5112885;28;20461;-62
2021/06/05 10:21:39;;;;;;;0.20;0.20;;;;;;;;;;5113353;28;20403;-62
2021/06/05 10:24:24;;;;;;;0.20;0.20;;;;;;;;;;5113486;28;20508;-62
2021/06/05 10:26:50;;;;;;;0.20;0.20;;;;;;;;;;5113220;28;20415;-62
2021/06/05 10:29:29;;;;;;;0.20;0.20;;;;;;;;;;5113067;28;20390;-62
2021/06/05 10:31:56;;;;;;;0.20;0.20;;;;;;;;;;5113060;28;20386;-62
2021/06/05 10:34:41;;;;;;;0.20;0.20;;;;;;;;;;5113267;28;20813;-62
2021/06/05 10:37:27;;;;;;;0.20;0.20;;;;;;;;;;5113749;27;20389;-62
2021/06/05 10:39:53;;;;;;;0.20;0.20;;;;;;;;;;5133376;27;20425;-62
2021/06/05 10:42:19;;;;;;;0.20;0.20;;;;;;;;;;5133382;27;20376;-62
2021/06/05 10:44:46;;;;;;;0.20;0.20;;;;;;;;;;5133767;27;20450;-62
2021/06/05 10:47:18;;;;;;;0.20;0.20;;;;;;;;;;5133645;27;20381;-62
2021/06/05 10:49:50;;;;;;;0.20;0.20;;;;;;;;;;5133143;27;20672;-62
2021/06/05 10:52:36;;;;;;;0.20;0.20;;;;;;;;;;5133560;27;20409;-62
2021/06/05 10:55:08;;;;;;;0.20;0.20;;;;;;;;;;5116423;27;20809;-62
2021/06/05 10:57:36;;;;;;;0.20;0.20;;;;;;;;;;5133174;27;20454;-62
2021/06/05 11:00:21;;;;;;;0.20;0.20;;;;;;;;;;5133089;27;20426;-62
2021/06/05 11:02:48;;;;;;;0.20;0.20;;;;;;;;;;5132997;27;20385;-62
2021/06/05 11:05:18;;;;;;;0.20;0.20;;;;;;;;;;5133180;27;20453;-62
2021/06/05 11:07:44;;;;;;;0.20;0.20;;;;;;;;;;5133263;27;20396;-61
2021/06/05 11:10:12;;;;;;;0.20;0.20;;;;;;;;;;5132874;27;20471;-62
2021/06/05 11:12:38;;;;;;;0.20;0.20;;;;;;;;;;5132313;27;20798;-62
2021/06/05 11:15:06;;;;;;;0.20;0.20;;;;;;;;;;5132039;27;20377;-62
2021/06/05 11:17:40;;;;;;;0.20;0.20;;;;;;;;;;5133164;27;20771;-62
2021/06/05 11:20:08;;;;;;;0.20;0.20;;;;;;;;;;5133420;27;20424;-62
2021/06/05 11:22:49;;;;;;;0.20;0.20;;;;;;;;;;5132982;27;20459;-62
2021/06/05 11:25:15;;;;;;;0.20;0.20;;;;;;;;;;5132517;27;20462;-62
2021/06/05 11:27:41;;;;;;;0.20;0.20;;;;;;;;;;5132726;27;20410;-62
2021/06/05 11:30:09;;;;;;;0.20;0.20;;;;;;;;;;5132530;27;20425;-62
2021/06/05 11:32:54;;;;;;;0.20;0.20;;;;;;;;;;5132884;27;20497;-62
2021/06/05 11:35:32;;;;;;;0.20;0.20;;;;;;;;;;5132535;27;20747;-62
2021/06/05 11:37:59;;;;;;;0.20;0.20;;;;;;;;;;5132595;27;20484;-62
2021/06/05 11:40:43;;;;;;;0.20;0.20;;;;;;;;;;5132338;27;20427;-62
2021/06/05 11:43:19;;;;;;;0.20;0.20;;;;;;;;;;5132272;27;20431;-62
2021/06/05 11:46:04;;;;;;;0.20;0.20;;;;;;;;;;5132565;27;20543;-62
2021/06/05 11:48:37;;;;;;;0.20;0.20;;;;;;;;;;5132276;27;20446;-62
2021/06/05 11:51:21;;;;;;;0.20;0.20;;;;;;;;;;5132428;27;20399;-62
2021/06/05 11:53:52;;;;;;;0.20;0.20;;;;;;;;;;5113999;27;20412;-62
2021/06/05 11:56:22;;;;;;;0.20;0.20;;;;;;;;;;5132394;27;20402;-62
2021/06/05 11:58:49;;;;;;;0.20;0.20;;;;;;;;;;5132104;27;20742;-62
2021/06/05 12:01:26;;;;;;;0.20;0.20;;;;;;;;;;5132377;27;20442;-62
2021/06/05 12:04:11;;;;;;;0.20;0.20;;;;;;;;;;5132315;27;20439;-62
2021/06/05 12:06:43;;;;;;;0.20;0.20;;;;;;;;;;5131919;28;20465;-62
2021/06/05 12:09:11;;;;;;;0.20;0.20;;;;;;;;;;5132043;28;20484;-62
2021/06/05 12:11:40;;;;;;;0.20;0.20;;;;;;;;;;5132242;28;20398;-62
2021/06/05 12:14:13;;;;;;;0.20;0.20;;;;;;;;;;5132148;28;20402;-62
2021/06/05 12:16:44;;;;;;;0.20;0.20;;;;;;;;;;5132151;28;20893;-62
2021/06/05 12:19:10;;;;;;;0.20;0.20;;;;;;;;;;5131789;28;20442;-62
2021/06/05 12:21:39;;;;;;;0.20;0.20;;;;;;;;;;5132007;28;20913;-62
2021/06/05 12:24:14;;;;;;;0.20;0.20;;;;;;;;;;5132099;28;20892;-62
2021/06/05 12:26:52;;;;;;;0.20;0.20;;;;;;;;;;5131902;28;20429;-62
2021/06/05 12:29:24;;;;;;;0.20;0.20;;;;;;;;;;5130931;28;20449;-62
2021/06/05 12:31:50;;;;;;;0.20;0.20;;;;;;;;;;5131947;28;20399;-62
2021/06/05 12:34:29;;;;;;;0.20;0.20;;;;;;;;;;5131916;28;20388;-62
2021/06/05 12:36:57;;;;;;;0.20;0.20;;;;;;;;;;5133128;27;20400;-62
2021/06/05 12:39:41;;;;;;;0.20;0.20;;;;;;;;;;5116890;27;20473;-62
2021/06/05 12:42:08;;;;;;;0.20;0.20;;;;;;;;;;5136058;27;20446;-62
2021/06/05 12:44:35;;;;;;;0.20;0.20;;;;;;;;;;5135887;27;20402;-62
2021/06/05 12:47:06;;;;;;;0.20;0.20;;;;;;;;;;5136401;27;20893;-62
2021/06/05 12:49:32;;;;;;;0.20;0.20;;;;;;;;;;5135745;27;20397;-62
2021/06/05 12:52:01;;;;;;;0.20;0.20;;;;;;;;;;5135758;27;20381;-62
2021/06/05 12:54:51;;;;;;;0.20;0.20;;;;;;;;;;5135802;27;20407;-62
2021/06/05 12:57:35;;;;;;;0.20;0.20;;;;;;;;;;5135715;27;20438;-62
2021/06/05 13:00:20;;;;;;;0.20;0.20;;;;;;;;;;5135310;27;20415;-62
2021/06/05 13:02:47;;;;;;;0.20;0.20;;;;;;;;;;5135592;27;20769;-62
2021/06/05 13:05:18;;;;;;;0.20;0.20;;;;;;;;;;5135365;27;20481;-62
2021/06/05 13:07:45;;;;;;;0.20;0.20;;;;;;;;;;5135569;27;20700;-62
2021/06/05 13:10:33;;;;;;;0.20;0.20;;;;;;;;;;5135204;27;20639;-62
2021/06/05 13:13:29;;;;;;;0.20;0.20;;;;;;;;;;5135221;27;20395;-62
2021/06/05 13:15:55;;;;;;;0.20;0.20;;;;;;;;;;5113758;27;20454;-62
2021/06/05 13:18:30;;;;;;;0.20;0.20;;;;;;;;;;5135082;27;20948;-62
2021/06/05 13:20:58;;;;;;;0.20;0.20;;;;;;;;;;5135308;27;20920;-62
2021/06/05 13:23:24;;;;;;;0.20;0.20;;;;;;;;;;5135169;27;20405;-62
2021/06/05 13:25:50;;;;;;;0.20;0.20;;;;;;;;;;5135028;27;20482;-62
2021/06/05 13:28:31;;;;;;;0.20;0.20;;;;;;;;;;5134969;27;20799;-62
2021/06/05 13:30:58;;;;;;;0.20;0.20;;;;;;;;;;5135072;27;20413;-62
2021/06/05 13:33:39;;;;;;;0.20;0.20;;;;;;;;;;5135022;27;20397;-62
2021/06/05 13:36:08;;;;;;;0.20;0.20;;;;;;;;;;5134968;27;20411;-62
2021/06/05 13:38:49;;;;;;;0.20;0.20;;;;;;;;;;5134453;27;20545;-62
2021/06/05 13:41:15;;;;;;;0.20;0.20;;;;;;;;;;5134994;27;20413;-62
2021/06/05 13:43:41;;;;;;;0.20;0.20;;;;;;;;;;5134587;27;20388;-62
2021/06/05 13:46:07;;;;;;;0.20;0.20;;;;;;;;;;5134512;27;20457;-62
2021/06/05 13:48:32;;;;;;;0.20;0.20;;;;;;;;;;5133036;27;20419;-62
2021/06/05 13:50:59;;;;;;;0.20;0.20;;;;;;;;;;5134387;27;20861;-62
2021/06/05 13:53:27;;;;;;;0.20;0.20;;;;;;;;;;5116005;27;20406;-62
2021/06/05 13:55:58;;;;;;;0.20;0.20;;;;;;;;;;5134641;27;20430;-62
2021/06/05 13:58:25;;;;;;;0.20;0.20;;;;;;;;;;5134389;27;20498;-62
2021/06/05 14:00:51;;;;;;;0.20;0.20;;;;;;;;;;5134701;27;20381;-62
2021/06/05 14:03:18;;;;;;;0.20;0.20;;;;;;;;;;5134417;27;20382;-62
2021/06/05 14:05:45;;;;;;;0.20;0.20;;;;;;;;;;5134245;27;20460;-62
2021/06/05 14:08:12;;;;;;;0.20;0.20;;;;;;;;;;5134178;27;20396;-62
2021/06/05 14:10:38;;;;;;;0.20;0.20;;;;;;;;;;5134134;27;20931;-62
2021/06/05 14:13:04;;;;;;;0.20;0.20;;;;;;;;;;5134279;27;20487;-62
2021/06/05 14:15:32;;;;;;;0.20;0.20;;;;;;;;;;5134048;27;20432;-62
2021/06/05 14:17:59;;;;;;;0.20;0.20;;;;;;;;;;5134169;27;20434;-62
2021/06/05 14:20:27;;;;;;;0.20;0.20;;;;;;;;;;5134724;27;20498;-62
2021/06/05 14:22:53;;;;;;;0.20;0.20;;;;;;;;;;5135607;27;20413;-62
2021/06/05 14:25:19;;;;;;;0.20;0.20;;;;;;;;;;5134475;27;20497;-61
2021/06/05 14:27:46;;;;;;;0.20;0.20;;;;;;;;;;5134110;27;20769;-61
2021/06/05 14:30:18;;;;;;;0.20;0.20;;;;;;;;;;5133632;27;20423;-62
2021/06/05 14:32:44;;;;;;;0.20;0.20;;;;;;;;;;5134472;27;20377;-62
2021/06/05 14:35:10;;;;;;;0.20;0.20;;;;;;;;;;5115278;27;20463;-62
2021/06/05 14:37:36;;;;;;;0.20;0.20;;;;;;;;;;5133606;27;20490;-62
2021/06/05 14:40:03;;;;;;;0.20;0.20;;;;;;;;;;5133763;27;20487;-61
2021/06/05 14:42:29;;;;;;;0.20;0.20;;;;;;;;;;5133604;27;20415;-62
2021/06/05 14:44:56;;;;;;;0.20;0.20;;;;;;;;;;5133438;27;20741;-61
2021/06/05 14:47:22;;;;;;;0.20;0.20;;;;;;;;;;5133209;27;20721;-62
2021/06/05 14:49:48;;;;;;;0.20;0.20;;;;;;;;;;5133173;27;20989;-62
2021/06/05 14:52:16;;;;;;;0.20;0.20;;;;;;;;;;5133382;27;20435;-62
2021/06/05 14:54:42;;;;;;;0.20;0.20;;;;;;;;;;5133571;27;20411;-62